Terminal Aerodrome Forecast
Issued by NWS Jackson, MS

Home | Current Version | Previous Version | Text Only | Print | Product List | Glossary On
Versions: 1 2 3 4 5 6 7 8 9 10 11 12 13 14 15
000
FTUS44 KJAN 211100 RRA
TAFGWO
TAF
KGWO 211143Z 2112/2212 18007KT P6SM SCT100 BKN250
     FM211530 19009KT P6SM VCSH OVC100
     FM212100 20007KT P6SM SCT050 SCT120
     FM220500 19005KT P6SM -SHRA VCTS SCT030 BKN050CB OVC120=

USA.gov is the U.S. government's official web portal to all federal, state and local government web resources and services.